sensor_id;sensor_type;location;lat;lon;timestamp;P1;durP1;ratioP1;P2;durP2;ratioP2
22924;SDS011;11628;51.072;3.712;2023-03-15T00:00:28;7.75;;;1.80;;
22924;SDS011;11628;51.072;3.712;2023-03-15T00:02:55;5.57;;;1.55;;
22924;SDS011;11628;51.072;3.712;2023-03-15T00:05:21;4.82;;;1.80;;
22924;SDS011;11628;51.072;3.712;2023-03-15T00:07:46;7.57;;;2.88;;
22924;SDS011;11628;51.072;3.712;2023-03-15T00:10:12;9.93;;;3.67;;
22924;SDS011;11628;51.072;3.712;2023-03-15T00:12:38;9.38;;;4.00;;
22924;SDS011;11628;51.072;3.712;2023-03-15T00:15:06;10.85;;;5.00;;
22924;SDS011;11628;51.072;3.712;2023-03-15T00:17:33;9.85;;;5.25;;
22924;SDS011;11628;51.072;3.712;2023-03-15T00:20:00;6.88;;;5.10;;
22924;SDS011;11628;51.072;3.712;2023-03-15T00:22:25;10.27;;;5.00;;
22924;SDS011;11628;51.072;3.712;2023-03-15T00:24:51;10.25;;;4.63;;
22924;SDS011;11628;51.072;3.712;2023-03-15T00:27:17;10.45;;;5.35;;
22924;SDS011;11628;51.072;3.712;2023-03-15T00:29:42;8.80;;;5.35;;
22924;SDS011;11628;51.072;3.712;2023-03-15T00:32:08;10.38;;;5.10;;
22924;SDS011;11628;51.072;3.712;2023-03-15T00:34:34;9.35;;;4.50;;
22924;SDS011;11628;51.072;3.712;2023-03-15T00:37:00;6.30;;;5.25;;
22924;SDS011;11628;51.072;3.712;2023-03-15T00:39:25;8.38;;;4.53;;
22924;SDS011;11628;51.072;3.712;2023-03-15T00:41:51;7.18;;;4.35;;
22924;SDS011;11628;51.072;3.712;2023-03-15T00:44:20;8.43;;;4.65;;
22924;SDS011;11628;51.072;3.712;2023-03-15T00:46:49;8.52;;;4.70;;
22924;SDS011;11628;51.072;3.712;2023-03-15T00:49:15;8.88;;;4.78;;
22924;SDS011;11628;51.072;3.712;2023-03-15T00:51:40;10.18;;;4.75;;
22924;SDS011;11628;51.072;3.712;2023-03-15T00:54:06;7.88;;;4.70;;
22924;SDS011;11628;51.072;3.712;2023-03-15T00:56:33;7.45;;;4.25;;
22924;SDS011;11628;51.072;3.712;2023-03-15T00:59:00;11.43;;;4.95;;
22924;SDS011;11628;51.072;3.712;2023-03-15T01:01:27;8.63;;;4.57;;
22924;SDS011;11628;51.072;3.712;2023-03-15T01:03:53;7.53;;;4.07;;
22924;SDS011;11628;51.072;3.712;2023-03-15T01:06:20;8.40;;;3.70;;
22924;SDS011;11628;51.072;3.712;2023-03-15T01:08:48;9.55;;;3.55;;
22924;SDS011;11628;51.072;3.712;2023-03-15T01:11:19;8.70;;;4.00;;
22924;SDS011;11628;51.072;3.712;2023-03-15T01:13:48;6.85;;;3.72;;
22924;SDS011;11628;51.072;3.712;2023-03-15T01:16:17;8.13;;;3.40;;
22924;SDS011;11628;51.072;3.712;2023-03-15T01:18:43;6.63;;;3.50;;
22924;SDS011;11628;51.072;3.712;2023-03-15T01:21:10;5.63;;;3.58;;
22924;SDS011;11628;51.072;3.712;2023-03-15T01:23:37;6.75;;;3.40;;
22924;SDS011;11628;51.072;3.712;2023-03-15T01:26:04;11.75;;;4.13;;
22924;SDS011;11628;51.072;3.712;2023-03-15T01:28:31;8.50;;;3.50;;
22924;SDS011;11628;51.072;3.712;2023-03-15T01:30:57;5.55;;;3.80;;
22924;SDS011;11628;51.072;3.712;2023-03-15T01:33:23;8.05;;;3.00;;
22924;SDS011;11628;51.072;3.712;2023-03-15T01:35:59;8.43;;;2.88;;
22924;SDS011;11628;51.072;3.712;2023-03-15T01:38:30;3.63;;;2.05;;
22924;SDS011;11628;51.072;3.712;2023-03-15T01:40:56;5.05;;;2.00;;
22924;SDS011;11628;51.072;3.712;2023-03-15T01:43:23;5.70;;;1.80;;
22924;SDS011;11628;51.072;3.712;2023-03-15T01:48:29;3.58;;;1.40;;
22924;SDS011;11628;51.072;3.712;2023-03-15T01:51:12;4.20;;;1.47;;
22924;SDS011;11628;51.072;3.712;2023-03-15T01:53:53;4.07;;;1.65;;
22924;SDS011;11628;51.072;3.712;2023-03-15T01:56:32;4.72;;;1.50;;
22924;SDS011;11628;51.072;3.712;2023-03-15T01:59:02;3.88;;;1.40;;
22924;SDS011;11628;51.072;3.712;2023-03-15T02:01:31;4.50;;;1.75;;
22924;SDS011;11628;51.072;3.712;2023-03-15T02:04:02;5.65;;;1.80;;
22924;SDS011;11628;51.072;3.712;2023-03-15T02:09:00;4.72;;;2.22;;
22924;SDS011;11628;51.072;3.712;2023-03-15T02:11:30;2.97;;;1.90;;
22924;SDS011;11628;51.072;3.712;2023-03-15T02:13:56;4.30;;;2.95;;
22924;SDS011;11628;51.072;3.712;2023-03-15T02:16:23;5.43;;;2.63;;
22924;SDS011;11628;51.072;3.712;2023-03-15T02:18:49;6.65;;;2.22;;
22924;SDS011;11628;51.072;3.712;2023-03-15T02:26:46;4.63;;;3.00;;
22924;SDS011;11628;51.072;3.712;2023-03-15T02:29:17;7.53;;;2.70;;
22924;SDS011;11628;51.072;3.712;2023-03-15T02:31:43;5.25;;;2.70;;
22924;SDS011;11628;51.072;3.712;2023-03-15T02:34:09;5.72;;;3.05;;
22924;SDS011;11628;51.072;3.712;2023-03-15T02:36:35;4.65;;;3.13;;
22924;SDS011;11628;51.072;3.712;2023-03-15T02:39:01;5.55;;;3.05;;
22924;SDS011;11628;51.072;3.712;2023-03-15T02:41:38;5.97;;;2.88;;
22924;SDS011;11628;51.072;3.712;2023-03-15T02:46:43;4.70;;;3.03;;
22924;SDS011;11628;51.072;3.712;2023-03-15T02:49:12;5.03;;;3.30;;
22924;SDS011;11628;51.072;3.712;2023-03-15T02:51:41;5.40;;;3.10;;
22924;SDS011;11628;51.072;3.712;2023-03-15T02:54:06;4.50;;;3.42;;
22924;SDS011;11628;51.072;3.712;2023-03-15T02:56:32;5.28;;;2.90;;
22924;SDS011;11628;51.072;3.712;2023-03-15T02:58:58;9.20;;;3.47;;
22924;SDS011;11628;51.072;3.712;2023-03-15T03:01:24;7.65;;;3.50;;
22924;SDS011;11628;51.072;3.712;2023-03-15T03:03:50;7.72;;;3.22;;
22924;SDS011;11628;51.072;3.712;2023-03-15T03:06:16;8.25;;;3.42;;
22924;SDS011;11628;51.072;3.712;2023-03-15T03:08:43;7.05;;;3.13;;
22924;SDS011;11628;51.072;3.712;2023-03-15T03:11:12;8.30;;;2.92;;
22924;SDS011;11628;51.072;3.712;2023-03-15T03:13:40;7.85;;;3.60;;
22924;SDS011;11628;51.072;3.712;2023-03-15T03:16:06;7.35;;;3.42;;
22924;SDS011;11628;51.072;3.712;2023-03-15T03:18:33;6.40;;;3.45;;
22924;SDS011;11628;51.072;3.712;2023-03-15T03:21:03;8.02;;;3.22;;
22924;SDS011;11628;51.072;3.712;2023-03-15T03:23:31;8.68;;;3.90;;
22924;SDS011;11628;51.072;3.712;2023-03-15T03:26:00;6.78;;;3.88;;
22924;SDS011;11628;51.072;3.712;2023-03-15T03:28:27;5.32;;;3.63;;
22924;SDS011;11628;51.072;3.712;2023-03-15T03:30:54;8.35;;;4.72;;
22924;SDS011;11628;51.072;3.712;2023-03-15T03:33:22;8.02;;;4.68;;
22924;SDS011;11628;51.072;3.712;2023-03-15T03:35:48;7.97;;;4.00;;
22924;SDS011;11628;51.072;3.712;2023-03-15T03:38:15;7.32;;;4.43;;
22924;SDS011;11628;51.072;3.712;2023-03-15T03:40:40;6.75;;;4.38;;
22924;SDS011;11628;51.072;3.712;2023-03-15T03:43:07;9.35;;;4.75;;
22924;SDS011;11628;51.072;3.712;2023-03-15T03:45:33;8.32;;;4.80;;
22924;SDS011;11628;51.072;3.712;2023-03-15T03:47:59;8.68;;;4.63;;
22924;SDS011;11628;51.072;3.712;2023-03-15T03:50:25;10.10;;;4.28;;
22924;SDS011;11628;51.072;3.712;2023-03-15T03:52:51;10.70;;;4.88;;
22924;SDS011;11628;51.072;3.712;2023-03-15T03:55:17;8.98;;;5.00;;
22924;SDS011;11628;51.072;3.712;2023-03-15T03:57:43;12.15;;;4.95;;
22924;SDS011;11628;51.072;3.712;2023-03-15T04:00:11;9.65;;;5.63;;
22924;SDS011;11628;51.072;3.712;2023-03-15T04:02:38;10.40;;;4.75;;
22924;SDS011;11628;51.072;3.712;2023-03-15T04:05:07;11.35;;;5.47;;
22924;SDS011;11628;51.072;3.712;2023-03-15T04:07:37;10.80;;;5.80;;
22924;SDS011;11628;51.072;3.712;2023-03-15T04:10:03;9.90;;;5.57;;
22924;SDS011;11628;51.072;3.712;2023-03-15T04:12:29;10.07;;;5.38;;
22924;SDS011;11628;51.072;3.712;2023-03-15T04:14:55;8.57;;;5.53;;
22924;SDS011;11628;51.072;3.712;2023-03-15T04:17:21;9.32;;;5.90;;
22924;SDS011;11628;51.072;3.712;2023-03-15T04:19:47;9.52;;;5.50;;
22924;SDS011;11628;51.072;3.712;2023-03-15T04:22:13;10.05;;;5.20;;
22924;SDS011;11628;51.072;3.712;2023-03-15T04:24:39;10.63;;;6.00;;
22924;SDS011;11628;51.072;3.712;2023-03-15T04:27:05;8.40;;;5.80;;
22924;SDS011;11628;51.072;3.712;2023-03-15T04:29:31;7.25;;;5.82;;
22924;SDS011;11628;51.072;3.712;2023-03-15T04:31:57;11.70;;;5.82;;
22924;SDS011;11628;51.072;3.712;2023-03-15T04:34:26;9.18;;;5.57;;
22924;SDS011;11628;51.072;3.712;2023-03-15T04:36:53;11.80;;;6.10;;
22924;SDS011;11628;51.072;3.712;2023-03-15T04:39:19;10.82;;;5.70;;
22924;SDS011;11628;51.072;3.712;2023-03-15T04:41:45;9.10;;;5.38;;
22924;SDS011;11628;51.072;3.712;2023-03-15T04:44:11;9.40;;;5.22;;
22924;SDS011;11628;51.072;3.712;2023-03-15T04:46:40;9.00;;;5.10;;
22924;SDS011;11628;51.072;3.712;2023-03-15T04:49:09;9.73;;;5.78;;
22924;SDS011;11628;51.072;3.712;2023-03-15T04:51:35;8.50;;;5.88;;
22924;SDS011;11628;51.072;3.712;2023-03-15T04:54:01;9.32;;;5.43;;
22924;SDS011;11628;51.072;3.712;2023-03-15T04:56:27;8.35;;;5.80;;
22924;SDS011;11628;51.072;3.712;2023-03-15T04:58:54;9.13;;;5.78;;
22924;SDS011;11628;51.072;3.712;2023-03-15T05:01:24;9.90;;;5.68;;
22924;SDS011;11628;51.072;3.712;2023-03-15T05:03:54;10.18;;;6.18;;
22924;SDS011;11628;51.072;3.712;2023-03-15T05:06:19;11.40;;;5.35;;
22924;SDS011;11628;51.072;3.712;2023-03-15T05:08:45;10.50;;;5.82;;
22924;SDS011;11628;51.072;3.712;2023-03-15T05:11:11;7.50;;;5.15;;
22924;SDS011;11628;51.072;3.712;2023-03-15T05:13:37;8.77;;;5.45;;
22924;SDS011;11628;51.072;3.712;2023-03-15T05:16:02;9.50;;;5.60;;
22924;SDS011;11628;51.072;3.712;2023-03-15T05:18:28;7.13;;;5.13;;
22924;SDS011;11628;51.072;3.712;2023-03-15T05:20:54;11.93;;;5.60;;
22924;SDS011;11628;51.072;3.712;2023-03-15T05:23:22;8.77;;;4.57;;
22924;SDS011;11628;51.072;3.712;2023-03-15T05:25:49;8.63;;;4.82;;
22924;SDS011;11628;51.072;3.712;2023-03-15T05:28:19;9.68;;;5.72;;
22924;SDS011;11628;51.072;3.712;2023-03-15T05:30:49;8.43;;;4.93;;
22924;SDS011;11628;51.072;3.712;2023-03-15T05:33:16;7.55;;;5.50;;
22924;SDS011;11628;51.072;3.712;2023-03-15T05:35:42;6.55;;;5.63;;
22924;SDS011;11628;51.072;3.712;2023-03-15T05:38:09;9.52;;;5.20;;
22924;SDS011;11628;51.072;3.712;2023-03-15T05:40:47;9.98;;;5.50;;
22924;SDS011;11628;51.072;3.712;2023-03-15T05:43:13;11.43;;;5.75;;
22924;SDS011;11628;51.072;3.712;2023-03-15T05:45:38;8.43;;;5.68;;
22924;SDS011;11628;51.072;3.712;2023-03-15T05:48:05;9.25;;;5.82;;
22924;SDS011;11628;51.072;3.712;2023-03-15T05:50:31;11.25;;;6.70;;
22924;SDS011;11628;51.072;3.712;2023-03-15T05:52:57;9.32;;;6.72;;
22924;SDS011;11628;51.072;3.712;2023-03-15T05:55:23;13.25;;;6.35;;
22924;SDS011;11628;51.072;3.712;2023-03-15T05:57:49;9.20;;;6.00;;
22924;SDS011;11628;51.072;3.712;2023-03-15T06:00:15;13.57;;;6.60;;
22924;SDS011;11628;51.072;3.712;2023-03-15T06:02:42;8.15;;;6.68;;
22924;SDS011;11628;51.072;3.712;2023-03-15T06:05:08;10.50;;;6.10;;
22924;SDS011;11628;51.072;3.712;2023-03-15T06:07:34;44.20;;;24.88;;
22924;SDS011;11628;51.072;3.712;2023-03-15T06:10:00;14.95;;;7.95;;
22924;SDS011;11628;51.072;3.712;2023-03-15T06:12:27;12.85;;;8.48;;
22924;SDS011;11628;51.072;3.712;2023-03-15T06:14:52;17.77;;;11.20;;
22924;SDS011;11628;51.072;3.712;2023-03-15T06:17:18;10.52;;;6.38;;
22924;SDS011;11628;51.072;3.712;2023-03-15T06:19:44;12.45;;;7.63;;
22924;SDS011;11628;51.072;3.712;2023-03-15T06:22:10;13.45;;;7.50;;
22924;SDS011;11628;51.072;3.712;2023-03-15T06:24:36;10.68;;;6.50;;
22924;SDS011;11628;51.072;3.712;2023-03-15T06:27:01;9.38;;;6.70;;
22924;SDS011;11628;51.072;3.712;2023-03-15T06:29:27;10.75;;;6.72;;
22924;SDS011;11628;51.072;3.712;2023-03-15T06:31:53;10.07;;;6.57;;
22924;SDS011;11628;51.072;3.712;2023-03-15T06:34:18;11.35;;;6.40;;
22924;SDS011;11628;51.072;3.712;2023-03-15T06:36:45;10.20;;;6.25;;
22924;SDS011;11628;51.072;3.712;2023-03-15T06:39:11;10.25;;;5.90;;
22924;SDS011;11628;51.072;3.712;2023-03-15T06:41:38;10.68;;;7.00;;
22924;SDS011;11628;51.072;3.712;2023-03-15T06:44:05;10.38;;;7.03;;
22924;SDS011;11628;51.072;3.712;2023-03-15T06:46:32;10.45;;;5.97;;
22924;SDS011;11628;51.072;3.712;2023-03-15T06:48:57;10.27;;;6.80;;
22924;SDS011;11628;51.072;3.712;2023-03-15T06:51:23;8.35;;;6.38;;
22924;SDS011;11628;51.072;3.712;2023-03-15T06:53:49;15.70;;;8.35;;
22924;SDS011;11628;51.072;3.712;2023-03-15T06:56:15;17.08;;;11.35;;
22924;SDS011;11628;51.072;3.712;2023-03-15T06:58:41;9.00;;;6.05;;
22924;SDS011;11628;51.072;3.712;2023-03-15T07:01:10;12.40;;;5.38;;
22924;SDS011;11628;51.072;3.712;2023-03-15T07:03:37;8.65;;;5.05;;
22924;SDS011;11628;51.072;3.712;2023-03-15T07:06:02;10.55;;;6.10;;
22924;SDS011;11628;51.072;3.712;2023-03-15T07:08:28;8.10;;;5.85;;
22924;SDS011;11628;51.072;3.712;2023-03-15T07:10:54;10.10;;;6.15;;
22924;SDS011;11628;51.072;3.712;2023-03-15T07:13:21;9.57;;;6.40;;
22924;SDS011;11628;51.072;3.712;2023-03-15T07:15:54;11.95;;;6.10;;
22924;SDS011;11628;51.072;3.712;2023-03-15T07:18:21;10.27;;;5.45;;
22924;SDS011;11628;51.072;3.712;2023-03-15T07:20:46;12.38;;;5.97;;
22924;SDS011;11628;51.072;3.712;2023-03-15T07:23:19;10.35;;;5.50;;
22924;SDS011;11628;51.072;3.712;2023-03-15T07:25:46;9.75;;;5.85;;
22924;SDS011;11628;51.072;3.712;2023-03-15T07:28:13;9.20;;;5.47;;
22924;SDS011;11628;51.072;3.712;2023-03-15T07:30:38;9.77;;;6.60;;
22924;SDS011;11628;51.072;3.712;2023-03-15T07:33:04;7.95;;;6.10;;
22924;SDS011;11628;51.072;3.712;2023-03-15T07:35:30;10.10;;;5.75;;
22924;SDS011;11628;51.072;3.712;2023-03-15T07:37:56;6.43;;;5.40;;
22924;SDS011;11628;51.072;3.712;2023-03-15T07:40:21;8.75;;;4.80;;
22924;SDS011;11628;51.072;3.712;2023-03-15T07:42:48;9.63;;;4.45;;
22924;SDS011;11628;51.072;3.712;2023-03-15T07:45:14;6.68;;;4.38;;
22924;SDS011;11628;51.072;3.712;2023-03-15T07:47:40;6.40;;;4.68;;
22924;SDS011;11628;51.072;3.712;2023-03-15T07:50:06;6.22;;;5.07;;
22924;SDS011;11628;51.072;3.712;2023-03-15T07:52:32;10.45;;;4.45;;
22924;SDS011;11628;51.072;3.712;2023-03-15T07:54:57;8.23;;;3.97;;
22924;SDS011;11628;51.072;3.712;2023-03-15T07:57:23;8.45;;;4.82;;
22924;SDS011;11628;51.072;3.712;2023-03-15T07:59:49;4.90;;;3.47;;
22924;SDS011;11628;51.072;3.712;2023-03-15T08:02:16;5.63;;;3.08;;
22924;SDS011;11628;51.072;3.712;2023-03-15T08:04:42;4.25;;;3.38;;
22924;SDS011;11628;51.072;3.712;2023-03-15T08:07:08;6.32;;;2.88;;
22924;SDS011;11628;51.072;3.712;2023-03-15T08:09:35;4.70;;;2.70;;
22924;SDS011;11628;51.072;3.712;2023-03-15T08:12:00;4.22;;;2.65;;
22924;SDS011;11628;51.072;3.712;2023-03-15T08:14:26;5.53;;;2.72;;
22924;SDS011;11628;51.072;3.712;2023-03-15T08:16:53;4.32;;;2.50;;
22924;SDS011;11628;51.072;3.712;2023-03-15T08:19:19;4.25;;;2.85;;
22924;SDS011;11628;51.072;3.712;2023-03-15T08:21:46;5.97;;;2.35;;
22924;SDS011;11628;51.072;3.712;2023-03-15T08:24:11;5.43;;;2.63;;
22924;SDS011;11628;51.072;3.712;2023-03-15T08:26:38;3.97;;;2.42;;
22924;SDS011;11628;51.072;3.712;2023-03-15T08:29:03;2.88;;;2.08;;
22924;SDS011;11628;51.072;3.712;2023-03-15T08:31:29;5.18;;;2.72;;
22924;SDS011;11628;51.072;3.712;2023-03-15T08:33:55;4.65;;;2.55;;
22924;SDS011;11628;51.072;3.712;2023-03-15T08:36:21;7.13;;;3.00;;
22924;SDS011;11628;51.072;3.712;2023-03-15T08:38:47;3.47;;;2.30;;
22924;SDS011;11628;51.072;3.712;2023-03-15T08:41:13;5.57;;;2.25;;
22924;SDS011;11628;51.072;3.712;2023-03-15T08:43:38;4.75;;;2.70;;
22924;SDS011;11628;51.072;3.712;2023-03-15T08:46:04;5.65;;;2.20;;
22924;SDS011;11628;51.072;3.712;2023-03-15T08:48:30;6.20;;;1.80;;
22924;SDS011;11628;51.072;3.712;2023-03-15T08:51:00;3.88;;;1.95;;
22924;SDS011;11628;51.072;3.712;2023-03-15T08:53:30;5.90;;;1.80;;
22924;SDS011;11628;51.072;3.712;2023-03-15T08:55:56;6.07;;;2.15;;
22924;SDS011;11628;51.072;3.712;2023-03-15T08:58:22;4.03;;;2.10;;
22924;SDS011;11628;51.072;3.712;2023-03-15T09:00:48;5.10;;;1.83;;
22924;SDS011;11628;51.072;3.712;2023-03-15T09:03:15;4.47;;;1.88;;
22924;SDS011;11628;51.072;3.712;2023-03-15T09:05:41;4.38;;;2.38;;
22924;SDS011;11628;51.072;3.712;2023-03-15T09:08:07;4.30;;;2.40;;
22924;SDS011;11628;51.072;3.712;2023-03-15T09:10:33;2.97;;;1.77;;
22924;SDS011;11628;51.072;3.712;2023-03-15T09:12:59;4.18;;;1.90;;
22924;SDS011;11628;51.072;3.712;2023-03-15T09:15:24;3.38;;;2.00;;
22924;SDS011;11628;51.072;3.712;2023-03-15T09:17:50;12.32;;;2.65;;
22924;SDS011;11628;51.072;3.712;2023-03-15T09:20:17;4.40;;;1.73;;
22924;SDS011;11628;51.072;3.712;2023-03-15T09:22:50;8.00;;;2.00;;
22924;SDS011;11628;51.072;3.712;2023-03-15T09:25:17;5.25;;;1.80;;
22924;SDS011;11628;51.072;3.712;2023-03-15T09:27:43;5.32;;;1.35;;
22924;SDS011;11628;51.072;3.712;2023-03-15T09:30:09;4.35;;;1.63;;
22924;SDS011;11628;51.072;3.712;2023-03-15T09:32:35;3.05;;;1.30;;
22924;SDS011;11628;51.072;3.712;2023-03-15T09:35:05;2.90;;;1.40;;
22924;SDS011;11628;51.072;3.712;2023-03-15T09:37:33;3.53;;;1.80;;
22924;SDS011;11628;51.072;3.712;2023-03-15T09:39:59;5.63;;;1.52;;
22924;SDS011;11628;51.072;3.712;2023-03-15T09:50:41;4.25;;;1.67;;
22924;SDS011;11628;51.072;3.712;2023-03-15T09:53:31;6.70;;;3.10;;
22924;SDS011;11628;51.072;3.712;2023-03-15T09:56:20;2.97;;;2.25;;
22924;SDS011;11628;51.072;3.712;2023-03-15T09:58:49;3.88;;;1.60;;
22924;SDS011;11628;51.072;3.712;2023-03-15T10:01:19;3.72;;;1.95;;
22924;SDS011;11628;51.072;3.712;2023-03-15T10:06:19;7.82;;;4.70;;
22924;SDS011;11628;51.072;3.712;2023-03-15T10:08:53;4.63;;;2.17;;
22924;SDS011;11628;51.072;3.712;2023-03-15T10:16:58;3.03;;;1.30;;
22924;SDS011;11628;51.072;3.712;2023-03-15T10:19:31;4.82;;;1.30;;
22924;SDS011;11628;51.072;3.712;2023-03-15T10:22:28;5.80;;;1.70;;
22924;SDS011;11628;51.072;3.712;2023-03-15T10:25:15;4.22;;;1.92;;
22924;SDS011;11628;51.072;3.712;2023-03-15T10:30:24;3.50;;;1.60;;
22924;SDS011;11628;51.072;3.712;2023-03-15T10:35:45;4.10;;;1.65;;
22924;SDS011;11628;51.072;3.712;2023-03-15T10:38:12;3.78;;;1.30;;
22924;SDS011;11628;51.072;3.712;2023-03-15T10:40:43;5.30;;;1.55;;
22924;SDS011;11628;51.072;3.712;2023-03-15T10:48:30;4.20;;;1.42;;
22924;SDS011;11628;51.072;3.712;2023-03-15T10:51:03;4.38;;;1.48;;
22924;SDS011;11628;51.072;3.712;2023-03-15T10:56:24;3.30;;;1.30;;
22924;SDS011;11628;51.072;3.712;2023-03-15T10:58:52;3.35;;;1.30;;
22924;SDS011;11628;51.072;3.712;2023-03-15T11:01:27;3.67;;;1.40;;
22924;SDS011;11628;51.072;3.712;2023-03-15T11:04:01;4.15;;;1.50;;
22924;SDS011;11628;51.072;3.712;2023-03-15T11:06:59;3.80;;;1.20;;
22924;SDS011;11628;51.072;3.712;2023-03-15T11:09:40;2.15;;;1.15;;
22924;SDS011;11628;51.072;3.712;2023-03-15T11:12:09;2.90;;;1.60;;
22924;SDS011;11628;51.072;3.712;2023-03-15T11:14:44;4.43;;;1.58;;
22924;SDS011;11628;51.072;3.712;2023-03-15T11:17:20;3.20;;;1.70;;
22924;SDS011;11628;51.072;3.712;2023-03-15T11:20:01;4.15;;;1.30;;
22924;SDS011;11628;51.072;3.712;2023-03-15T11:22:39;5.18;;;1.48;;
22924;SDS011;11628;51.072;3.712;2023-03-15T11:25:11;2.70;;;1.10;;
22924;SDS011;11628;51.072;3.712;2023-03-15T11:27:41;3.70;;;1.35;;
22924;SDS011;11628;51.072;3.712;2023-03-15T11:30:14;2.60;;;0.95;;
22924;SDS011;11628;51.072;3.712;2023-03-15T11:32:41;3.30;;;1.00;;
22924;SDS011;11628;51.072;3.712;2023-03-15T11:35:18;2.83;;;1.17;;
22924;SDS011;11628;51.072;3.712;2023-03-15T11:37:52;2.67;;;0.90;;
22924;SDS011;11628;51.072;3.712;2023-03-15T11:40:29;2.15;;;0.85;;
22924;SDS011;11628;51.072;3.712;2023-03-15T11:43:03;1.33;;;0.90;;
22924;SDS011;11628;51.072;3.712;2023-03-15T11:45:35;2.60;;;0.82;;
22924;SDS011;11628;51.072;3.712;2023-03-15T11:50:53;1.73;;;0.98;;
22924;SDS011;11628;51.072;3.712;2023-03-15T11:53:19;2.13;;;1.00;;
22924;SDS011;11628;51.072;3.712;2023-03-15T11:55:48;2.60;;;1.35;;
22924;SDS011;11628;51.072;3.712;2023-03-15T12:01:09;3.22;;;1.10;;
22924;SDS011;11628;51.072;3.712;2023-03-15T12:11:09;3.75;;;1.48;;
22924;SDS011;11628;51.072;3.712;2023-03-15T12:13:36;2.05;;;1.20;;
22924;SDS011;11628;51.072;3.712;2023-03-15T12:16:04;2.33;;;0.82;;
22924;SDS011;11628;51.072;3.712;2023-03-15T12:18:31;1.55;;;0.73;;
22924;SDS011;11628;51.072;3.712;2023-03-15T12:21:09;3.45;;;1.05;;
22924;SDS011;11628;51.072;3.712;2023-03-15T12:23:40;3.10;;;1.10;;
22924;SDS011;11628;51.072;3.712;2023-03-15T12:26:12;3.25;;;1.02;;
22924;SDS011;11628;51.072;3.712;2023-03-15T12:28:50;3.40;;;1.10;;
22924;SDS011;11628;51.072;3.712;2023-03-15T12:31:25;2.22;;;1.23;;
22924;SDS011;11628;51.072;3.712;2023-03-15T12:34:10;2.47;;;0.80;;
22924;SDS011;11628;51.072;3.712;2023-03-15T12:36:39;2.22;;;0.90;;
22924;SDS011;11628;51.072;3.712;2023-03-15T12:41:45;2.58;;;1.00;;
22924;SDS011;11628;51.072;3.712;2023-03-15T12:46:57;1.73;;;1.00;;
22924;SDS011;11628;51.072;3.712;2023-03-15T12:51:58;3.10;;;1.08;;
22924;SDS011;11628;51.072;3.712;2023-03-15T12:54:33;1.58;;;1.10;;
22924;SDS011;11628;51.072;3.712;2023-03-15T12:57:09;1.63;;;1.20;;
22924;SDS011;11628;51.072;3.712;2023-03-15T13:04:57;2.65;;;1.10;;
22924;SDS011;11628;51.072;3.712;2023-03-15T13:10:34;2.53;;;1.00;;
22924;SDS011;11628;51.072;3.712;2023-03-15T13:13:28;3.17;;;1.20;;
22924;SDS011;11628;51.072;3.712;2023-03-15T13:18:31;2.10;;;1.33;;
22924;SDS011;11628;51.072;3.712;2023-03-15T13:21:11;4.30;;;1.38;;
22924;SDS011;11628;51.072;3.712;2023-03-15T13:23:49;3.53;;;1.70;;
22924;SDS011;11628;51.072;3.712;2023-03-15T13:31:35;2.00;;;1.23;;
22924;SDS011;11628;51.072;3.712;2023-03-15T13:34:20;6.45;;;2.35;;
22924;SDS011;11628;51.072;3.712;2023-03-15T13:36:52;6.53;;;1.88;;
22924;SDS011;11628;51.072;3.712;2023-03-15T13:39:20;5.18;;;1.48;;
22924;SDS011;11628;51.072;3.712;2023-03-15T13:41:48;5.78;;;1.60;;
22924;SDS011;11628;51.072;3.712;2023-03-15T13:44:21;2.85;;;1.33;;
22924;SDS011;11628;51.072;3.712;2023-03-15T13:46:48;2.13;;;1.35;;
22924;SDS011;11628;51.072;3.712;2023-03-15T13:49:15;4.05;;;1.50;;
22924;SDS011;11628;51.072;3.712;2023-03-15T13:51:41;2.33;;;1.88;;
22924;SDS011;11628;51.072;3.712;2023-03-15T13:54:19;5.47;;;4.05;;
22924;SDS011;11628;51.072;3.712;2023-03-15T13:57:00;2.85;;;2.17;;
22924;SDS011;11628;51.072;3.712;2023-03-15T13:59:37;3.13;;;2.10;;
22924;SDS011;11628;51.072;3.712;2023-03-15T14:05:16;5.05;;;1.40;;
22924;SDS011;11628;51.072;3.712;2023-03-15T14:07:53;2.47;;;1.27;;
22924;SDS011;11628;51.072;3.712;2023-03-15T14:12:52;3.03;;;1.65;;
22924;SDS011;11628;51.072;3.712;2023-03-15T14:20:57;3.05;;;1.40;;
22924;SDS011;11628;51.072;3.712;2023-03-15T14:23:31;2.20;;;1.45;;
22924;SDS011;11628;51.072;3.712;2023-03-15T14:26:15;1.65;;;1.23;;
22924;SDS011;11628;51.072;3.712;2023-03-15T14:28:56;2.75;;;1.10;;
22924;SDS011;11628;51.072;3.712;2023-03-15T14:31:27;3.47;;;1.20;;
22924;SDS011;11628;51.072;3.712;2023-03-15T14:33:57;2.87;;;1.23;;
22924;SDS011;11628;51.072;3.712;2023-03-15T14:36:39;1.45;;;1.17;;
22924;SDS011;11628;51.072;3.712;2023-03-15T14:39:23;1.85;;;0.90;;
22924;SDS011;11628;51.072;3.712;2023-03-15T14:41:51;3.00;;;1.13;;
22924;SDS011;11628;51.072;3.712;2023-03-15T14:44:17;3.92;;;0.90;;
22924;SDS011;11628;51.072;3.712;2023-03-15T14:46:43;1.83;;;0.90;;
22924;SDS011;11628;51.072;3.712;2023-03-15T14:49:11;1.98;;;1.20;;
22924;SDS011;11628;51.072;3.712;2023-03-15T14:51:41;2.10;;;1.05;;
22924;SDS011;11628;51.072;3.712;2023-03-15T14:54:07;2.13;;;1.60;;
22924;SDS011;11628;51.072;3.712;2023-03-15T14:56:35;2.53;;;1.30;;
22924;SDS011;11628;51.072;3.712;2023-03-15T14:59:02;2.58;;;0.90;;
22924;SDS011;11628;51.072;3.712;2023-03-15T15:01:33;2.42;;;0.90;;
22924;SDS011;11628;51.072;3.712;2023-03-15T15:03:59;1.33;;;1.00;;
22924;SDS011;11628;51.072;3.712;2023-03-15T15:06:27;2.45;;;1.13;;
22924;SDS011;11628;51.072;3.712;2023-03-15T15:08:56;2.85;;;1.48;;
22924;SDS011;11628;51.072;3.712;2023-03-15T15:11:23;2.65;;;1.00;;
22924;SDS011;11628;51.072;3.712;2023-03-15T15:13:50;1.98;;;1.15;;
22924;SDS011;11628;51.072;3.712;2023-03-15T15:16:15;3.30;;;1.17;;
22924;SDS011;11628;51.072;3.712;2023-03-15T15:18:41;2.17;;;1.38;;
22924;SDS011;11628;51.072;3.712;2023-03-15T15:23:43;3.20;;;1.23;;
22924;SDS011;11628;51.072;3.712;2023-03-15T15:26:18;1.85;;;1.33;;
22924;SDS011;11628;51.072;3.712;2023-03-15T15:28:46;5.53;;;1.50;;
22924;SDS011;11628;51.072;3.712;2023-03-15T15:31:14;4.65;;;1.75;;
22924;SDS011;11628;51.072;3.712;2023-03-15T15:33:41;4.28;;;1.85;;
22924;SDS011;11628;51.072;3.712;2023-03-15T15:36:11;6.30;;;2.25;;
22924;SDS011;11628;51.072;3.712;2023-03-15T15:38:40;3.47;;;2.05;;
22924;SDS011;11628;51.072;3.712;2023-03-15T15:41:13;4.40;;;2.40;;
22924;SDS011;11628;51.072;3.712;2023-03-15T15:43:42;6.20;;;2.65;;
22924;SDS011;11628;51.072;3.712;2023-03-15T15:46:09;4.97;;;2.17;;
22924;SDS011;11628;51.072;3.712;2023-03-15T15:48:36;3.75;;;2.05;;
22924;SDS011;11628;51.072;3.712;2023-03-15T15:51:02;3.58;;;1.98;;
22924;SDS011;11628;51.072;3.712;2023-03-15T15:53:38;3.80;;;2.05;;
22924;SDS011;11628;51.072;3.712;2023-03-15T15:56:04;1.75;;;1.40;;
22924;SDS011;11628;51.072;3.712;2023-03-15T15:58:30;2.15;;;1.40;;
22924;SDS011;11628;51.072;3.712;2023-03-15T16:00:56;4.72;;;2.83;;
22924;SDS011;11628;51.072;3.712;2023-03-15T16:03:22;5.15;;;2.60;;
22924;SDS011;11628;51.072;3.712;2023-03-15T16:05:47;4.97;;;3.47;;
22924;SDS011;11628;51.072;3.712;2023-03-15T16:08:18;5.80;;;1.60;;
22924;SDS011;11628;51.072;3.712;2023-03-15T16:10:45;3.90;;;2.00;;
22924;SDS011;11628;51.072;3.712;2023-03-15T16:13:11;2.22;;;1.10;;
22924;SDS011;11628;51.072;3.712;2023-03-15T16:15:37;6.65;;;1.27;;
22924;SDS011;11628;51.072;3.712;2023-03-15T16:18:08;1.85;;;1.10;;
22924;SDS011;11628;51.072;3.712;2023-03-15T16:20:35;2.47;;;1.25;;
22924;SDS011;11628;51.072;3.712;2023-03-15T16:23:01;2.42;;;1.40;;
22924;SDS011;11628;51.072;3.712;2023-03-15T16:25:27;4.35;;;1.33;;
22924;SDS011;11628;51.072;3.712;2023-03-15T16:27:57;3.45;;;1.70;;